Time;durP1;ratioP1;P1;durP2;ratioP2;P2;SDS_P1;SDS_P2;PMS_P1;PMS_P2;Temp;Humidity;BMP_temperature;BMP_pressure;BME280_temperature;BME280_humidity;BME280_pressure;Samples;Min_cycle;Max_cycle;Signal;HPM_P1;HPM_P2
2023/11/23 00:00:23;;;;;;;3.23;2.80;;;9.60;76.30;;;;;;5034030;28;20111;-70
2023/11/23 00:02:49;;;;;;;3.67;2.97;;;9.60;76.30;;;;;;5032917;28;20113;-75
2023/11/23 00:05:15;;;;;;;4.73;3.07;;;9.60;76.00;;;;;;5034154;28;20025;-70
2023/11/23 00:07:40;;;;;;;5.23;2.73;;;9.60;76.00;;;;;;5034044;28;20111;-69
2023/11/23 00:10:07;;;;;;;7.33;2.90;;;9.60;76.20;;;;;;5034163;28;20030;-69
2023/11/23 00:12:32;;;;;;;5.70;3.30;;;9.60;76.00;;;;;;5032801;28;20049;-70
2023/11/23 00:15:00;;;;;;;7.13;3.03;;;9.60;76.20;;;;;;5033682;28;20079;-69
2023/11/23 00:17:26;;;;;;;4.93;3.53;;;9.60;76.30;;;;;;5033648;28;20060;-71
2023/11/23 00:19:51;;;;;;;4.40;2.70;;;9.60;76.10;;;;;;5033793;28;20064;-69
2023/11/23 00:22:17;;;;;;;4.63;2.87;;;9.50;76.10;;;;;;5033382;28;20498;-70
2023/11/23 00:24:43;;;;;;;3.90;3.10;;;9.60;75.80;;;;;;5033123;28;20112;-69
2023/11/23 00:27:09;;;;;;;4.20;3.03;;;9.60;74.90;;;;;;5033395;28;20029;-70
2023/11/23 00:29:35;;;;;;;5.73;2.93;;;9.50;75.10;;;;;;5033304;28;20025;-70
2023/11/23 00:32:01;;;;;;;4.50;3.17;;;9.50;75.40;;;;;;5033266;28;20504;-70
2023/11/23 00:34:26;;;;;;;3.37;2.77;;;9.50;75.70;;;;;;5033544;28;20029;-70
2023/11/23 00:36:52;;;;;;;4.57;2.93;;;9.50;76.00;;;;;;5033381;28;20300;-70
2023/11/23 00:39:18;;;;;;;4.07;2.97;;;9.50;75.60;;;;;;5033432;28;20489;-69
2023/11/23 00:41:43;;;;;;;4.77;2.80;;;9.50;75.60;;;;;;5033123;28;20381;-70
2023/11/23 00:44:10;;;;;;;3.87;2.83;;;9.40;75.70;;;;;;5033214;28;20036;-70
2023/11/23 00:46:36;;;;;;;3.67;2.70;;;9.40;75.80;;;;;;5033193;28;20374;-70
2023/11/23 00:49:02;;;;;;;4.07;2.47;;;9.40;75.80;;;;;;5033113;28;20036;-69
2023/11/23 00:51:28;;;;;;;3.83;2.60;;;9.40;75.50;;;;;;5033189;28;20385;-70
2023/11/23 00:53:53;;;;;;;3.00;2.40;;;9.40;75.60;;;;;;5033199;28;20036;-69
2023/11/23 00:56:19;;;;;;;4.47;2.60;;;9.40;75.90;;;;;;5032700;28;20040;-70
2023/11/23 00:58:45;;;;;;;2.93;2.53;;;9.40;75.80;;;;;;5032457;28;20037;-69
2023/11/23 01:01:17;;;;;;;4.57;2.80;;;9.40;76.00;;;;;;5033035;28;20053;-70
2023/11/23 01:03:42;;;;;;;3.93;2.17;;;9.40;75.50;;;;;;5033037;28;20034;-70
2023/11/23 01:06:08;;;;;;;3.17;2.47;;;9.40;75.60;;;;;;5032914;28;20636;-70
2023/11/23 01:08:34;;;;;;;3.50;2.70;;;9.40;75.10;;;;;;5032776;28;20121;-69
2023/11/23 01:11:01;;;;;;;2.67;2.13;;;9.40;74.70;;;;;;5032646;28;20017;-69
2023/11/23 01:13:27;;;;;;;4.90;2.63;;;9.40;74.80;;;;;;5032722;28;20049;-70
2023/11/23 01:15:53;;;;;;;2.90;2.37;;;9.40;74.70;;;;;;5032756;28;20036;-71
2023/11/23 01:18:19;;;;;;;3.80;2.37;;;9.40;74.80;;;;;;5032753;28;20041;-70
2023/11/23 01:20:44;;;;;;;3.40;2.40;;;9.40;74.70;;;;;;5032867;28;20052;-69
2023/11/23 01:23:13;;;;;;;6.40;2.60;;;9.40;74.70;;;;;;5032837;28;20101;-69
2023/11/23 01:25:39;;;;;;;3.87;2.30;;;9.40;74.80;;;;;;5032636;28;20542;-70
2023/11/23 01:28:05;;;;;;;3.33;2.50;;;9.40;74.80;;;;;;5032385;28;20096;-70
2023/11/23 01:30:31;;;;;;;3.93;2.30;;;9.40;75.10;;;;;;5032469;28;20033;-69
2023/11/23 01:32:56;;;;;;;2.90;2.20;;;9.40;74.70;;;;;;5032719;28;20026;-70
2023/11/23 01:35:22;;;;;;;3.50;2.70;;;9.40;74.80;;;;;;5032618;28;20017;-70
2023/11/23 01:37:49;;;;;;;3.33;2.30;;;9.40;75.30;;;;;;5032559;28;20041;-70
2023/11/23 01:40:16;;;;;;;4.30;2.50;;;9.30;75.30;;;;;;5032432;28;20492;-70
2023/11/23 01:42:43;;;;;;;2.60;2.17;;;9.30;74.80;;;;;;5032442;28;20032;-69
2023/11/23 01:45:09;;;;;;;2.80;2.40;;;9.30;74.10;;;;;;5032356;28;20037;-69
2023/11/23 01:47:42;;;;;;;3.87;2.40;;;9.30;74.40;;;;;;5031446;28;20096;-68
2023/11/23 01:50:09;;;;;;;4.60;2.30;;;9.30;74.10;;;;;;5032165;28;20040;-69
2023/11/23 01:52:35;;;;;;;3.77;2.50;;;9.30;74.30;;;;;;5031794;28;20025;-69
2023/11/23 01:55:03;;;;;;;3.43;2.13;;;9.30;74.20;;;;;;5032056;28;20032;-70
2023/11/23 01:57:33;;;;;;;3.50;2.73;;;9.40;73.40;;;;;;5031302;28;20038;-70
2023/11/23 02:00:00;;;;;;;3.27;2.67;;;9.40;73.10;;;;;;5028144;28;20041;-69
2023/11/23 02:02:27;;;;;;;4.23;2.27;;;9.30;73.40;;;;;;5029587;28;20057;-69
2023/11/23 02:04:56;;;;;;;4.33;2.60;;;9.30;73.70;;;;;;5030779;28;20034;-69
2023/11/23 02:07:22;;;;;;;3.77;2.50;;;9.30;75.00;;;;;;5031871;28;20438;-69
2023/11/23 02:09:48;;;;;;;3.53;2.70;;;9.20;73.90;;;;;;5031953;28;20037;-69
2023/11/23 02:12:15;;;;;;;3.23;2.70;;;9.30;74.30;;;;;;5030701;28;20023;-70
2023/11/23 02:14:41;;;;;;;3.50;2.50;;;9.20;73.80;;;;;;5031891;28;20536;-70
2023/11/23 02:17:17;;;;;;;4.63;2.80;;;9.20;74.20;;;;;;5032014;28;20078;-70
2023/11/23 02:19:48;;;;;;;8.73;2.50;;;9.20;74.40;;;;;;5032233;28;20025;-69
2023/11/23 02:22:14;;;;;;;4.17;2.53;;;9.20;74.20;;;;;;5031910;28;20036;-70
2023/11/23 02:24:41;;;;;;;4.03;2.80;;;9.20;74.20;;;;;;5032186;28;20444;-69
2023/11/23 02:27:07;;;;;;;4.70;3.40;;;9.10;74.20;;;;;;5032461;28;20060;-70
2023/11/23 02:29:34;;;;;;;4.33;2.53;;;9.10;74.30;;;;;;5031688;28;20053;-70
2023/11/23 02:32:07;;;;;;;3.30;2.60;;;9.10;73.60;;;;;;5031940;28;20529;-70
2023/11/23 02:34:37;;;;;;;4.13;2.60;;;9.10;73.90;;;;;;5031966;28;20557;-69
2023/11/23 02:37:04;;;;;;;2.93;2.30;;;9.10;74.20;;;;;;5035040;28;20066;-70
2023/11/23 02:39:31;;;;;;;4.50;3.20;;;9.10;74.40;;;;;;5035383;28;20409;-70
2023/11/23 02:41:58;;;;;;;3.67;2.80;;;9.10;74.60;;;;;;5035273;28;20032;-70
2023/11/23 02:44:25;;;;;;;3.60;2.40;;;9.00;74.20;;;;;;5035622;28;20029;-70
2023/11/23 02:46:51;;;;;;;3.23;2.20;;;9.00;74.50;;;;;;5035266;28;20067;-70
2023/11/23 02:49:20;;;;;;;4.03;2.50;;;9.00;74.80;;;;;;5035303;28;20029;-69
2023/11/23 02:51:46;;;;;;;4.00;2.83;;;9.00;75.10;;;;;;5035117;28;20049;-70
2023/11/23 02:54:13;;;;;;;4.27;2.90;;;9.00;74.70;;;;;;5034799;28;20115;-69
2023/11/23 02:56:39;;;;;;;6.30;3.07;;;9.00;74.70;;;;;;5035203;28;20032;-69
2023/11/23 02:59:05;;;;;;;2.97;2.50;;;9.00;74.00;;;;;;5035031;28;20037;-70
2023/11/23 03:01:33;;;;;;;3.20;2.87;;;9.00;74.10;;;;;;5035016;28;20067;-69
2023/11/23 03:03:59;;;;;;;4.63;3.00;;;9.00;74.10;;;;;;5035173;28;20060;-70
2023/11/23 03:06:26;;;;;;;4.13;2.80;;;9.00;74.40;;;;;;5034892;28;20025;-70
2023/11/23 03:08:55;;;;;;;2.83;2.50;;;9.00;74.20;;;;;;5035193;28;20021;-70
2023/11/23 03:11:24;;;;;;;4.13;2.50;;;9.00;74.40;;;;;;5033935;28;20019;-69
2023/11/23 03:13:51;;;;;;;3.93;2.97;;;9.00;74.20;;;;;;5034592;28;20046;-69
2023/11/23 03:16:17;;;;;;;3.90;2.83;;;8.90;74.20;;;;;;5034201;28;20492;-69
2023/11/23 03:18:43;;;;;;;3.83;2.93;;;8.90;74.30;;;;;;5034320;28;20398;-69
2023/11/23 03:21:09;;;;;;;4.97;2.90;;;8.90;74.80;;;;;;5034737;28;20088;-69
2023/11/23 03:23:35;;;;;;;3.13;2.63;;;8.90;75.20;;;;;;5034571;28;20021;-69
2023/11/23 03:26:01;;;;;;;3.77;2.80;;;8.90;75.20;;;;;;5034603;28;20029;-69
2023/11/23 03:28:27;;;;;;;3.10;2.60;;;8.80;75.20;;;;;;5034409;28;20076;-69
2023/11/23 03:30:53;;;;;;;5.30;2.30;;;8.80;75.50;;;;;;5034577;28;20079;-70
2023/11/23 03:33:19;;;;;;;3.17;2.43;;;8.80;75.90;;;;;;5034477;28;20017;-69
2023/11/23 03:35:45;;;;;;;4.47;2.90;;;8.80;76.00;;;;;;5034238;28;20378;-69
2023/11/23 03:38:11;;;;;;;3.70;2.83;;;8.80;76.00;;;;;;5034382;28;20045;-69
2023/11/23 03:40:39;;;;;;;3.80;2.90;;;8.70;76.40;;;;;;5033228;28;20022;-69
2023/11/23 03:43:05;;;;;;;6.30;2.80;;;8.70;76.50;;;;;;5034298;28;20481;-70
2023/11/23 03:45:32;;;;;;;3.10;2.40;;;8.70;76.60;;;;;;5034368;28;20580;-69
2023/11/23 03:48:00;;;;;;;2.93;2.13;;;8.70;76.60;;;;;;5033193;28;20040;-69
2023/11/23 03:50:26;;;;;;;3.57;2.27;;;8.70;76.70;;;;;;5033933;28;20052;-70
2023/11/23 03:52:52;;;;;;;5.00;3.07;;;8.70;76.90;;;;;;5034274;28;20033;-70
2023/11/23 03:55:18;;;;;;;3.60;2.70;;;8.70;76.60;;;;;;5036299;28;20075;-70
2023/11/23 03:57:48;;;;;;;3.10;2.80;;;8.60;76.80;;;;;;5036880;28;20037;-70
2023/11/23 04:00:15;;;;;;;3.57;2.50;;;8.60;76.90;;;;;;5038743;28;20374;-70
2023/11/23 04:02:46;;;;;;;3.20;2.60;;;8.60;76.90;;;;;;5035988;28;20025;-70
2023/11/23 04:05:16;;;;;;;2.90;2.40;;;8.60;76.90;;;;;;5037577;28;20101;-71
2023/11/23 04:07:42;;;;;;;3.57;2.30;;;8.60;77.10;;;;;;5036854;28;20045;-71
2023/11/23 04:10:09;;;;;;;2.43;2.20;;;8.60;77.10;;;;;;5036498;28;20393;-70
2023/11/23 04:12:35;;;;;;;3.40;2.70;;;8.60;76.90;;;;;;5034651;28;20038;-70
2023/11/23 04:15:01;;;;;;;2.93;2.53;;;8.60;76.50;;;;;;5033832;28;20021;-69
2023/11/23 04:17:26;;;;;;;3.60;2.30;;;8.60;76.70;;;;;;5033722;28;20045;-68
2023/11/23 04:19:54;;;;;;;11.23;2.80;;;8.60;77.20;;;;;;5033487;28;20030;-71
2023/11/23 04:22:21;;;;;;;4.00;3.00;;;8.60;76.80;;;;;;5033854;28;20018;-70
2023/11/23 04:24:48;;;;;;;5.93;5.43;;;8.60;76.90;;;;;;5033538;28;20124;-70
2023/11/23 04:27:14;;;;;;;10.70;9.70;;;8.50;77.20;;;;;;5033497;28;20437;-70
2023/11/23 04:29:40;;;;;;;5.17;4.67;;;8.50;77.50;;;;;;5033287;28;20492;-71
2023/11/23 04:32:06;;;;;;;3.87;2.83;;;8.50;77.80;;;;;;5033412;28;20025;-71
2023/11/23 04:34:32;;;;;;;4.40;3.23;;;8.50;78.00;;;;;;5033563;28;20096;-70
2023/11/23 04:36:59;;;;;;;5.97;2.97;;;8.50;77.90;;;;;;5033394;28;20025;-71
2023/11/23 04:39:25;;;;;;;3.40;2.50;;;8.50;78.00;;;;;;5033073;28;20036;-71
2023/11/23 04:41:51;;;;;;;2.77;2.23;;;8.50;78.00;;;;;;5033137;28;20021;-70
2023/11/23 04:44:16;;;;;;;4.53;2.90;;;8.40;77.50;;;;;;5031973;28;20032;-71
2023/11/23 04:46:42;;;;;;;5.60;3.27;;;8.40;77.20;;;;;;5033298;28;20037;-70
2023/11/23 04:49:08;;;;;;;4.03;2.67;;;8.50;76.70;;;;;;5033215;28;20029;-70
2023/11/23 04:51:34;;;;;;;3.17;2.70;;;8.40;76.50;;;;;;5033308;28;20469;-70
2023/11/23 04:53:59;;;;;;;3.17;2.40;;;8.50;76.60;;;;;;5033063;28;20034;-70
2023/11/23 04:56:25;;;;;;;3.30;2.73;;;8.40;76.30;;;;;;5033021;28;20045;-70
2023/11/23 04:58:51;;;;;;;3.50;2.60;;;8.40;76.30;;;;;;5032613;28;20081;-71
2023/11/23 05:01:17;;;;;;;4.43;2.90;;;8.40;76.10;;;;;;5032965;28;20025;-70
2023/11/23 05:03:43;;;;;;;4.63;2.80;;;8.40;76.20;;;;;;5033172;28;20051;-70
2023/11/23 05:06:08;;;;;;;3.70;2.87;;;8.40;76.70;;;;;;5032789;28;20025;-70
2023/11/23 05:08:36;;;;;;;3.97;2.63;;;8.40;76.80;;;;;;5032405;28;20432;-71
2023/11/23 05:11:03;;;;;;;3.07;2.37;;;8.40;77.30;;;;;;5032034;28;20127;-70
2023/11/23 05:13:29;;;;;;;4.17;3.07;;;8.40;77.60;;;;;;5031549;28;20044;-71
2023/11/23 05:15:54;;;;;;;3.93;2.90;;;8.30;77.70;;;;;;5032100;28;20393;-70
2023/11/23 05:18:20;;;;;;;6.13;3.00;;;8.30;78.50;;;;;;5032432;28;20115;-70
2023/11/23 05:20:46;;;;;;;4.47;2.93;;;8.30;78.20;;;;;;5032653;28;20021;-70
2023/11/23 05:23:12;;;;;;;4.73;3.20;;;8.20;78.50;;;;;;5032384;28;20053;-70
2023/11/23 05:25:37;;;;;;;4.03;2.87;;;8.30;78.60;;;;;;5032480;28;20060;-70
2023/11/23 05:28:03;;;;;;;3.83;3.00;;;8.20;78.70;;;;;;5032029;28;20065;-70
2023/11/23 05:30:29;;;;;;;6.40;3.20;;;8.10;78.60;;;;;;5032221;28;20030;-70
2023/11/23 05:32:55;;;;;;;6.00;3.10;;;8.10;78.20;;;;;;5032392;28;20057;-70
2023/11/23 05:35:20;;;;;;;4.67;3.20;;;8.10;78.80;;;;;;5032535;28;20026;-69
2023/11/23 05:37:46;;;;;;;4.67;3.30;;;8.10;79.00;;;;;;5032415;28;20073;-70
2023/11/23 05:40:13;;;;;;;5.07;3.50;;;8.10;78.90;;;;;;5032376;28;20018;-70
2023/11/23 05:42:39;;;;;;;3.97;2.90;;;8.00;79.00;;;;;;5031226;28;20040;-70
2023/11/23 05:45:06;;;;;;;4.00;2.87;;;8.00;79.50;;;;;;5032388;28;20525;-70
2023/11/23 05:47:32;;;;;;;4.73;3.30;;;7.90;79.60;;;;;;5031041;28;20034;-70
2023/11/23 05:50:02;;;;;;;3.83;2.90;;;7.90;79.80;;;;;;5032483;28;20136;-70
2023/11/23 05:52:31;;;;;;;4.03;2.90;;;7.90;79.70;;;;;;5032139;28;20034;-69
2023/11/23 05:54:57;;;;;;;5.67;3.40;;;7.90;79.70;;;;;;5032429;28;20105;-70
2023/11/23 05:57:23;;;;;;;4.37;3.40;;;7.80;79.60;;;;;;5032360;28;20105;-71
2023/11/23 05:59:51;;;;;;;4.57;3.70;;;7.80;79.70;;;;;;5032270;28;20485;-70
2023/11/23 06:02:17;;;;;;;4.93;3.77;;;7.80;80.00;;;;;;5032291;28;20495;-69
2023/11/23 06:04:44;;;;;;;5.93;3.50;;;7.80;79.80;;;;;;5032599;28;20018;-70
2023/11/23 06:07:10;;;;;;;10.23;3.63;;;7.80;79.80;;;;;;5032600;28;20025;-70
2023/11/23 06:09:37;;;;;;;4.13;3.30;;;7.80;80.00;;;;;;5032534;28;20547;-70
2023/11/23 06:12:04;;;;;;;5.70;3.57;;;7.80;80.10;;;;;;5035538;28;20030;-70
2023/11/23 06:14:33;;;;;;;5.60;3.80;;;7.80;80.30;;;;;;5036091;28;20025;-70
2023/11/23 06:16:59;;;;;;;4.37;3.47;;;7.80;80.40;;;;;;5036016;28;20033;-69
2023/11/23 06:19:24;;;;;;;4.93;3.60;;;7.80;80.40;;;;;;5035477;28;20033;-75
2023/11/23 06:21:50;;;;;;;4.07;3.20;;;7.80;80.40;;;;;;5035703;28;20021;-75
2023/11/23 06:24:19;;;;;;;4.40;3.50;;;7.80;80.60;;;;;;5035889;28;20044;-75
2023/11/23 06:26:45;;;;;;;3.70;3.03;;;7.80;80.50;;;;;;5035831;28;20056;-75
2023/11/23 06:29:10;;;;;;;5.03;3.40;;;7.70;80.50;;;;;;5036079;28;20159;-74
2023/11/23 06:31:36;;;;;;;4.60;3.40;;;7.80;80.40;;;;;;5035667;28;20017;-74
2023/11/23 06:34:02;;;;;;;5.53;3.70;;;7.70;80.50;;;;;;5034439;28;20103;-75
2023/11/23 06:36:29;;;;;;;7.47;3.60;;;7.70;80.20;;;;;;5035284;28;20022;-75
2023/11/23 06:38:55;;;;;;;5.53;3.67;;;7.70;80.30;;;;;;5035632;28;20041;-74
2023/11/23 06:41:21;;;;;;;6.37;3.90;;;7.70;80.30;;;;;;5035549;28;20026;-75
2023/11/23 06:43:51;;;;;;;4.93;3.77;;;7.70;80.30;;;;;;5035756;28;20033;-74
2023/11/23 06:46:18;;;;;;;8.17;4.33;;;7.70;80.40;;;;;;5035541;28;20028;-74
2023/11/23 06:48:45;;;;;;;7.20;4.10;;;7.80;80.60;;;;;;5035486;28;20393;-75
2023/11/23 06:51:11;;;;;;;5.67;3.77;;;7.80;80.70;;;;;;5035571;28;20029;-74
2023/11/23 06:53:44;;;;;;;5.43;3.80;;;7.80;80.90;;;;;;5035643;28;20063;-75
2023/11/23 06:56:12;;;;;;;5.27;3.67;;;7.80;81.00;;;;;;5035027;28;20029;-74
2023/11/23 06:58:42;;;;;;;5.73;4.07;;;7.80;81.10;;;;;;5034776;28;20501;-69
2023/11/23 07:01:09;;;;;;;6.23;4.20;;;7.80;81.10;;;;;;5034933;28;20017;-75
2023/11/23 07:03:36;;;;;;;6.23;3.50;;;7.80;80.60;;;;;;5035209;28;20021;-72
2023/11/23 07:06:02;;;;;;;7.00;3.90;;;7.80;80.80;;;;;;5034754;28;20028;-73
2023/11/23 07:08:30;;;;;;;5.70;3.50;;;7.80;80.80;;;;;;5034896;28;20034;-75
2023/11/23 07:10:57;;;;;;;5.60;3.50;;;7.90;81.00;;;;;;5034462;28;20017;-75
2023/11/23 07:13:23;;;;;;;5.50;3.50;;;7.90;81.00;;;;;;5034692;28;20140;-75
2023/11/23 07:15:49;;;;;;;7.60;3.80;;;7.90;80.70;;;;;;5034637;28;20496;-76
2023/11/23 07:18:15;;;;;;;9.73;4.00;;;8.00;80.50;;;;;;5034359;28;20040;-75
2023/11/23 07:20:42;;;;;;;6.10;4.10;;;8.00;80.30;;;;;;5034729;28;20029;-76
2023/11/23 07:23:08;;;;;;;6.50;3.90;;;8.00;80.10;;;;;;5034736;28;20030;-75
2023/11/23 07:25:36;;;;;;;5.73;4.23;;;8.10;80.10;;;;;;5032125;28;20032;-70
2023/11/23 07:28:02;;;;;;;5.47;4.00;;;8.10;80.00;;;;;;5031835;28;20699;-76
2023/11/23 07:30:28;;;;;;;4.47;3.50;;;8.10;79.80;;;;;;5032511;28;20073;-75
2023/11/23 07:32:53;;;;;;;4.73;3.33;;;8.20;79.90;;;;;;5034155;28;20405;-77
2023/11/23 07:35:19;;;;;;;4.37;3.53;;;8.20;79.90;;;;;;5034418;28;20018;-85
2023/11/23 07:37:46;;;;;;;6.00;3.20;;;8.30;79.80;;;;;;5033769;28;20047;-73
2023/11/23 07:40:12;;;;;;;5.13;3.53;;;8.40;79.90;;;;;;5033731;28;20030;-76
2023/11/23 07:42:40;;;;;;;8.77;3.90;;;8.40;79.60;;;;;;5033577;28;20079;-76
2023/11/23 07:45:07;;;;;;;5.53;3.27;;;8.40;79.40;;;;;;5033372;28;20025;-75
2023/11/23 07:47:33;;;;;;;5.07;3.50;;;8.50;79.50;;;;;;5032745;28;20032;-76
2023/11/23 07:50:00;;;;;;;6.23;3.30;;;8.50;79.50;;;;;;5032532;28;20033;-73
2023/11/23 07:52:26;;;;;;;4.20;3.43;;;8.50;79.40;;;;;;5046622;28;20053;-75
2023/11/23 07:54:52;;;;;;;5.30;3.37;;;8.60;79.30;;;;;;5032374;28;20025;-75
2023/11/23 07:57:22;;;;;;;6.23;3.43;;;8.60;79.30;;;;;;5032996;28;20370;-75
2023/11/23 07:59:48;;;;;;;5.13;3.23;;;8.70;79.30;;;;;;5033912;28;20067;-74
2023/11/23 08:02:14;;;;;;;4.47;3.30;;;8.70;79.10;;;;;;5033955;28;20018;-74
2023/11/23 08:04:40;;;;;;;4.77;3.07;;;8.70;79.10;;;;;;5034035;28;20390;-74
2023/11/23 08:07:05;;;;;;;8.53;3.60;;;8.80;79.20;;;;;;5033640;28;20025;-75
2023/11/23 08:09:31;;;;;;;8.07;3.47;;;8.90;79.10;;;;;;5033785;28;20030;-74
2023/11/23 08:11:57;;;;;;;3.93;2.93;;;8.90;78.90;;;;;;5032431;28;20033;-73
2023/11/23 08:14:23;;;;;;;6.10;2.90;;;8.90;78.90;;;;;;5033839;28;20064;-73
2023/11/23 08:16:49;;;;;;;4.23;2.83;;;9.00;78.30;;;;;;5034037;28;20120;-73
2023/11/23 08:19:15;;;;;;;3.80;2.70;;;9.10;77.90;;;;;;5033411;28;20069;-75
2023/11/23 08:21:41;;;;;;;3.07;2.33;;;9.10;77.90;;;;;;5033454;28;20540;-74
2023/11/23 08:24:08;;;;;;;4.57;3.37;;;9.20;78.00;;;;;;5033720;28;20027;-73
2023/11/23 08:26:34;;;;;;;5.23;2.50;;;9.20;77.70;;;;;;5033879;28;20068;-74
2023/11/23 08:29:00;;;;;;;5.33;2.60;;;9.30;77.30;;;;;;5033313;28;20026;-73
2023/11/23 08:31:28;;;;;;;5.13;2.67;;;9.30;76.50;;;;;;5033123;28;20024;-74
2023/11/23 08:33:57;;;;;;;4.63;2.87;;;9.30;76.70;;;;;;5033017;28;20073;-72
2023/11/23 08:36:23;;;;;;;9.73;5.23;;;9.40;76.50;;;;;;5033468;28;20489;-74
2023/11/23 08:38:50;;;;;;;7.30;4.57;;;9.40;76.60;;;;;;5033419;28;20037;-73
2023/11/23 08:41:24;;;;;;;4.57;3.20;;;9.50;76.70;;;;;;5033460;28;20029;-73
2023/11/23 08:43:49;;;;;;;5.10;3.13;;;9.50;76.30;;;;;;5033477;28;20052;-73
2023/11/23 08:46:15;;;;;;;4.20;3.03;;;9.50;76.30;;;;;;5033515;28;20030;-75
2023/11/23 08:48:42;;;;;;;3.90;2.80;;;9.60;76.40;;;;;;5033178;28;20029;-75
2023/11/23 08:51:08;;;;;;;4.17;3.10;;;9.60;75.90;;;;;;5033304;28;20105;-74
2023/11/23 08:53:34;;;;;;;3.37;2.60;;;9.70;76.20;;;;;;5032898;28;20385;-75
2023/11/23 08:56:00;;;;;;;4.40;2.50;;;9.80;76.00;;;;;;5031860;28;20455;-74
2023/11/23 08:58:25;;;;;;;3.50;2.10;;;9.80;75.70;;;;;;5032986;28;20033;-74
2023/11/23 09:00:51;;;;;;;3.53;2.43;;;9.90;75.50;;;;;;5032883;28;20029;-73
2023/11/23 09:03:17;;;;;;;3.10;2.50;;;10.00;75.10;;;;;;5033081;28;20030;-72
2023/11/23 09:05:43;;;;;;;7.30;2.33;;;10.00;74.10;;;;;;5026029;28;20107;-72
2023/11/23 09:08:09;;;;;;;3.85;2.65;;;10.10;74.40;;;;;;5021650;28;20088;-73
2023/11/23 09:10:35;;;;;;;5.03;3.20;;;10.10;74.60;;;;;;5023197;28;20088;-73
2023/11/23 09:13:01;;;;;;;3.78;2.70;;;10.20;74.40;;;;;;5023474;28;20056;-73
2023/11/23 09:15:28;;;;;;;3.50;2.77;;;10.20;73.50;;;;;;5021740;28;20021;-75
2023/11/23 09:17:55;;;;;;;2.97;2.17;;;10.20;72.60;;;;;;5022037;28;20038;-72
2023/11/23 09:20:21;;;;;;;3.43;2.60;;;10.30;72.30;;;;;;5023341;28;20025;-72
2023/11/23 09:22:47;;;;;;;3.07;2.27;;;10.20;71.70;;;;;;5021526;28;20033;-73
2023/11/23 09:25:13;;;;;;;4.13;2.40;;;10.20;72.10;;;;;;5021843;28;20382;-72
2023/11/23 09:27:39;;;;;;;3.50;2.50;;;10.20;71.90;;;;;;5023310;28;20056;-73
2023/11/23 09:30:06;;;;;;;3.73;2.67;;;10.20;72.20;;;;;;5020755;28;20026;-73
2023/11/23 09:32:33;;;;;;;2.97;2.30;;;10.20;72.20;;;;;;5029023;28;20087;-73
2023/11/23 09:34:59;;;;;;;4.32;2.65;;;10.20;72.20;;;;;;5032001;28;20533;-73
2023/11/23 09:37:26;;;;;;;4.88;2.50;;;10.30;72.30;;;;;;5032682;28;20104;-73
2023/11/23 09:39:52;;;;;;;5.35;2.40;;;10.30;72.30;;;;;;5029977;28;20458;-72
2023/11/23 09:42:18;;;;;;;2.95;2.50;;;10.40;72.40;;;;;;5029783;28;20030;-73
2023/11/23 09:44:46;;;;;;;4.45;2.97;;;10.50;72.40;;;;;;5045969;28;20030;-73
2023/11/23 09:47:16;;;;;;;2.67;2.30;;;10.50;72.20;;;;;;5034983;28;20029;-73
2023/11/23 09:49:42;;;;;;;4.28;2.88;;;10.60;72.30;;;;;;5032322;28;20033;-73
2023/11/23 09:52:07;;;;;;;3.25;2.65;;;10.70;72.20;;;;;;5034583;28;20462;-74
2023/11/23 09:54:33;;;;;;;2.75;2.35;;;10.70;72.20;;;;;;5035617;28;20075;-73
2023/11/23 09:57:00;;;;;;;3.40;2.50;;;10.80;71.80;;;;;;5036424;28;20041;-73
2023/11/23 09:59:26;;;;;;;3.10;2.28;;;10.80;71.40;;;;;;5036054;28;20135;-73
2023/11/23 10:01:58;;;;;;;2.90;2.30;;;10.90;71.30;;;;;;5035872;28;20021;-73
2023/11/23 10:04:24;;;;;;;3.13;2.53;;;10.90;71.10;;;;;;5035919;28;20028;-73
2023/11/23 10:06:50;;;;;;;4.13;2.20;;;11.00;71.70;;;;;;5035926;28;20065;-73
2023/11/23 10:09:17;;;;;;;5.53;2.50;;;11.00;71.50;;;;;;5036025;28;20049;-73
2023/11/23 10:11:43;;;;;;;3.05;2.40;;;11.10;71.20;;;;;;5036078;28;20025;-73
2023/11/23 10:14:10;;;;;;;3.55;2.55;;;11.10;71.00;;;;;;5024617;23;20046;-73
2023/11/23 10:16:36;;;;;;;3.17;2.28;;;11.20;70.50;;;;;;5015765;28;20109;-73
2023/11/23 10:19:03;;;;;;;4.32;2.33;;;11.20;69.30;;;;;;5016261;28;20527;-73
2023/11/23 10:21:29;;;;;;;3.33;2.30;;;11.30;69.20;;;;;;5016290;28;20018;-74
2023/11/23 10:24:07;;;;;;;7.95;2.45;;;11.30;68.90;;;;;;5016415;28;20036;-73
2023/11/23 10:26:34;;;;;;;3.17;2.47;;;11.40;69.30;;;;;;5016407;28;20057;-74
2023/11/23 10:28:59;;;;;;;3.08;2.50;;;11.50;69.40;;;;;;5016352;28;20025;-74
2023/11/23 10:31:25;;;;;;;3.88;3.13;;;11.50;69.30;;;;;;5016002;28;20025;-73
2023/11/23 10:33:52;;;;;;;5.10;2.85;;;11.50;69.50;;;;;;5015857;28;20053;-71
2023/11/23 10:36:18;;;;;;;3.88;2.97;;;11.60;69.50;;;;;;5015962;28;20022;-74
2023/11/23 10:38:46;;;;;;;3.25;2.45;;;11.70;69.60;;;;;;5015901;28;20084;-74
2023/11/23 10:41:14;;;;;;;4.65;4.15;;;11.70;69.20;;;;;;5015623;28;20029;-75
2023/11/23 10:43:42;;;;;;;4.72;3.70;;;11.80;69.60;;;;;;5015828;28;20116;-73
2023/11/23 10:46:09;;;;;;;5.28;2.47;;;11.80;69.50;;;;;;5015741;28;20033;-74
2023/11/23 10:48:36;;;;;;;5.18;3.20;;;11.90;68.40;;;;;;5015618;28;20041;-74
2023/11/23 10:51:04;;;;;;;2.92;2.15;;;12.00;67.20;;;;;;5015925;28;20084;-75
2023/11/23 10:53:30;;;;;;;2.63;2.13;;;12.00;67.00;;;;;;5015714;28;20491;-74
2023/11/23 10:56:05;;;;;;;3.10;2.30;;;12.00;66.90;;;;;;5014819;28;20030;-74
2023/11/23 10:58:37;;;;;;;4.60;2.50;;;12.10;67.70;;;;;;5015240;28;20481;-73
2023/11/23 11:01:07;;;;;;;6.70;3.03;;;12.20;68.10;;;;;;5015516;28;20026;-74
2023/11/23 11:03:34;;;;;;;2.67;2.10;;;12.20;68.50;;;;;;5015445;28;20026;-75
2023/11/23 11:06:08;;;;;;;3.72;2.25;;;12.20;68.70;;;;;;5015175;28;20026;-74
2023/11/23 11:08:44;;;;;;;2.42;1.85;;;12.30;68.40;;;;;;5015336;28;20022;-75
2023/11/23 11:11:12;;;;;;;3.45;2.10;;;12.40;67.60;;;;;;5015489;28;20044;-75
2023/11/23 11:13:44;;;;;;;3.53;2.20;;;12.50;67.20;;;;;;5015152;28;20049;-74
2023/11/23 11:16:15;;;;;;;3.83;2.25;;;12.50;67.20;;;;;;5015165;28;20033;-75
2023/11/23 11:18:52;;;;;;;3.42;2.33;;;12.50;66.50;;;;;;5014954;28;20425;-75
2023/11/23 11:21:24;;;;;;;4.18;1.80;;;12.60;66.60;;;;;;5014768;28;20025;-74
2023/11/23 11:23:54;;;;;;;3.15;2.25;;;12.60;66.80;;;;;;5015098;28;20546;-75
2023/11/23 11:26:21;;;;;;;3.83;2.25;;;12.70;67.10;;;;;;5015125;28;20080;-75
2023/11/23 11:29:00;;;;;;;3.70;2.33;;;12.70;65.00;;;;;;5014667;28;20382;-75
2023/11/23 11:31:31;;;;;;;3.03;2.10;;;12.70;65.80;;;;;;5013477;28;20513;-74
2023/11/23 11:33:59;;;;;;;3.72;1.90;;;12.80;65.90;;;;;;5014436;28;20060;-73
2023/11/23 11:36:29;;;;;;;3.67;2.63;;;12.80;66.10;;;;;;5013930;28;20014;-73
2023/11/23 11:38:56;;;;;;;5.78;2.25;;;12.90;66.00;;;;;;5014330;28;20084;-73
2023/11/23 11:41:25;;;;;;;4.45;2.33;;;13.00;65.70;;;;;;5013242;28;20022;-70
2023/11/23 11:43:51;;;;;;;2.60;2.10;;;13.00;65.70;;;;;;5013445;28;20068;-72
2023/11/23 11:46:20;;;;;;;3.45;1.80;;;13.10;65.80;;;;;;5014484;28;20026;-73
2023/11/23 11:48:46;;;;;;;3.90;2.20;;;13.10;66.00;;;;;;5014211;28;20018;-72
2023/11/23 11:51:12;;;;;;;2.75;2.10;;;13.10;65.40;;;;;;5014324;28;20022;-73
2023/11/23 11:53:40;;;;;;;2.47;1.80;;;13.20;65.60;;;;;;5011913;28;20030;-73
2023/11/23 11:56:06;;;;;;;2.83;2.03;;;13.20;66.00;;;;;;5011675;28;20061;-74
2023/11/23 11:58:32;;;;;;;3.15;2.42;;;13.20;66.30;;;;;;5011632;28;20044;-73
2023/11/23 12:00:59;;;;;;;2.92;2.17;;;13.30;65.30;;;;;;5011704;28;20378;-72
2023/11/23 12:03:25;;;;;;;3.22;2.13;;;13.30;65.50;;;;;;5011710;28;20059;-73
2023/11/23 12:05:51;;;;;;;3.88;2.58;;;13.40;65.20;;;;;;5013359;28;20457;-72
2023/11/23 12:08:17;;;;;;;5.22;2.00;;;13.40;65.30;;;;;;5013283;28;20060;-73
2023/11/23 12:10:44;;;;;;;2.97;2.15;;;13.40;64.70;;;;;;5013783;28;20026;-69
2023/11/23 12:13:16;;;;;;;6.80;2.15;;;13.40;64.50;;;;;;5013924;28;20046;-73
2023/11/23 12:15:42;;;;;;;4.75;2.17;;;13.40;63.30;;;;;;5014174;28;20115;-75
2023/11/23 12:18:08;;;;;;;2.88;2.00;;;13.40;62.80;;;;;;5014130;28;20049;-76
2023/11/23 12:20:38;;;;;;;4.22;2.55;;;13.40;63.40;;;;;;5013467;28;20386;-76
2023/11/23 12:23:05;;;;;;;3.17;2.30;;;13.50;62.40;;;;;;5013303;28;20105;-74
2023/11/23 12:25:33;;;;;;;3.15;2.25;;;13.50;63.10;;;;;;5012200;28;20447;-75
2023/11/23 12:27:59;;;;;;;3.08;1.92;;;13.60;63.60;;;;;;5013699;28;20389;-76
2023/11/23 12:30:25;;;;;;;2.78;1.60;;;13.60;63.20;;;;;;5014012;28;20034;-76
2023/11/23 12:32:51;;;;;;;2.22;1.80;;;13.60;62.50;;;;;;5013502;28;20022;-77
2023/11/23 12:35:18;;;;;;;2.60;1.90;;;13.60;61.10;;;;;;5013726;28;20496;-76
2023/11/23 12:37:44;;;;;;;2.53;1.50;;;13.70;60.20;;;;;;5013672;28;20094;-76
2023/11/23 12:40:12;;;;;;;2.75;1.95;;;13.60;60.60;;;;;;5013799;28;20101;-76
2023/11/23 12:42:38;;;;;;;2.38;1.70;;;13.60;61.40;;;;;;5013533;28;20022;-74
2023/11/23 12:45:08;;;;;;;2.90;1.80;;;13.60;61.60;;;;;;5013609;28;20421;-76
2023/11/23 12:47:37;;;;;;;3.00;1.95;;;13.60;61.50;;;;;;5013478;28;20037;-76
2023/11/23 12:50:10;;;;;;;4.72;2.10;;;13.60;61.10;;;;;;5013238;28;20022;-76